Time;durP1;ratioP1;P1;durP2;ratioP2;P2;SDS_P1;SDS_P2;PMS_P1;PMS_P2;Temp;Humidity;BMP_temperature;BMP_pressure;BME280_temperature;BME280_humidity;BME280_pressure;Samples;Min_cycle;Max_cycle;Signal;HPM_P1;HPM_P2
2022/12/07 00:01:10;;;;;;;5.97;5.30;;;4.90;99.90;;;;;;5044765;28;20548;-46
2022/12/07 00:03:37;;;;;;;5.80;5.20;;;4.90;99.90;;;;;;5038085;28;20189;-50
2022/12/07 00:06:04;;;;;;;7.57;6.27;;;4.60;99.90;;;;;;5042365;28;20195;-51
2022/12/07 00:08:31;;;;;;;6.13;5.53;;;4.90;99.90;;;;;;5037478;28;20191;-48
2022/12/07 00:11:20;;;;;;;6.23;5.60;;;4.70;99.90;;;;;;5040639;28;20179;-45
2022/12/07 00:13:46;;;;;;;6.03;5.30;;;;;;;;;;5030605;28;20536;-46
2022/12/07 00:16:17;;;;;;;6.13;5.53;;;5.00;99.90;;;;;;5030947;28;20207;-51
2022/12/07 00:18:44;;;;;;;6.53;5.83;;;5.10;99.90;;;;;;5030767;28;20176;-50
2022/12/07 00:21:14;;;;;;;6.53;5.63;;;;;;;;;;5030900;28;20248;-51
2022/12/07 00:23:41;;;;;;;5.77;5.17;;;;;;;;;;5029458;28;20182;-49
2022/12/07 00:26:09;;;;;;;6.23;5.60;;;;;;;;;;5030998;28;20203;-51
2022/12/07 00:28:35;;;;;;;6.67;5.97;;;4.60;99.90;;;;;;5030610;28;20187;-49
2022/12/07 00:31:05;;;;;;;7.13;6.10;;;;;;;;;;5030969;28;20541;-48
2022/12/07 00:33:31;;;;;;;7.07;6.37;;;5.00;99.90;;;;;;5030723;28;20672;-48
2022/12/07 00:35:58;;;;;;;7.23;6.53;;;;;;;;;;5030508;28;20280;-47
2022/12/07 00:38:23;;;;;;;8.23;6.43;;;;;;;;;;5030928;28;20199;-46
2022/12/07 00:41:00;;;;;;;6.23;5.63;;;;;;;;;;5034358;28;20172;-49
2022/12/07 00:43:26;;;;;;;7.10;6.40;;;4.40;99.90;;;;;;5034563;28;20253;-46
2022/12/07 00:45:53;;;;;;;7.20;6.23;;;4.70;99.90;;;;;;5033913;28;20218;-49
2022/12/07 00:48:19;;;;;;;6.97;6.27;;;4.60;99.90;;;;;;5034472;28;20206;-48
2022/12/07 00:50:45;;;;;;;6.97;6.23;;;;;;;;;;5034105;28;20245;-48
2022/12/07 00:53:11;;;;;;;7.13;6.43;;;;;;;;;;5034313;28;20603;-51
2022/12/07 00:55:37;;;;;;;6.80;6.07;;;4.60;99.90;;;;;;5033502;28;20257;-48
2022/12/07 00:58:04;;;;;;;7.07;6.37;;;;;;;;;;5034310;28;20751;-49
2022/12/07 01:00:30;;;;;;;6.93;6.03;;;5.10;99.90;;;;;;5034176;28;20703;-48
2022/12/07 01:02:56;;;;;;;6.93;6.00;;;;;;;;;;5033959;28;20175;-50
2022/12/07 01:05:22;;;;;;;6.73;5.80;;;;;;;;;;5033677;28;20172;-52
2022/12/07 01:07:48;;;;;;;6.73;5.80;;;;;;;;;;5033693;28;20214;-49
2022/12/07 01:10:14;;;;;;;6.00;5.40;;;;;;;;;;5034075;28;20168;-48
2022/12/07 01:12:40;;;;;;;6.90;6.20;;;4.70;99.90;;;;;;5033784;28;20172;-50
2022/12/07 01:15:07;;;;;;;6.90;6.20;;;4.70;99.90;;;;;;5034047;28;20645;-49
2022/12/07 01:17:33;;;;;;;6.97;6.27;;;4.70;99.90;;;;;;5033476;28;20222;-48
2022/12/07 01:19:59;;;;;;;6.80;6.10;;;4.60;99.90;;;;;;5033835;28;20175;-48
2022/12/07 01:22:24;;;;;;;6.90;6.23;;;4.70;99.90;;;;;;5033563;28;20179;-52
2022/12/07 01:24:50;;;;;;;6.00;5.47;;;4.60;99.90;;;;;;5015690;28;20266;-48
2022/12/07 01:27:16;;;;;;;8.60;6.20;;;4.50;99.90;;;;;;5033692;28;20192;-50
2022/12/07 01:29:41;;;;;;;6.20;5.60;;;4.50;99.90;;;;;;5033367;28;20183;-47
2022/12/07 01:32:07;;;;;;;6.57;5.97;;;4.30;99.90;;;;;;5033742;28;20251;-51
2022/12/07 01:34:33;;;;;;;6.50;5.90;;;4.50;99.90;;;;;;5033071;28;20793;-49
2022/12/07 01:36:58;;;;;;;6.40;5.77;;;4.50;99.90;;;;;;5033385;28;20204;-46
2022/12/07 01:39:24;;;;;;;8.10;6.10;;;4.50;99.90;;;;;;5045175;28;20218;-48
2022/12/07 01:41:50;;;;;;;6.10;5.50;;;;;;;;;;5053422;28;20175;-50
2022/12/07 01:44:26;;;;;;;5.80;5.07;;;4.70;99.90;;;;;;5052780;28;20172;-51
2022/12/07 01:46:55;;;;;;;6.30;5.70;;;4.70;99.90;;;;;;5053218;28;20282;-48
2022/12/07 01:49:24;;;;;;;6.60;5.80;;;4.60;99.90;;;;;;5052883;28;20250;-49
2022/12/07 01:51:54;;;;;;;7.93;5.30;;;4.70;99.90;;;;;;5053057;28;20664;-47
2022/12/07 01:54:21;;;;;;;5.87;5.33;;;4.70;99.90;;;;;;5052901;28;20200;-49
2022/12/07 01:56:54;;;;;;;6.70;5.77;;;4.60;99.90;;;;;;5052695;28;20214;-47
2022/12/07 01:59:24;;;;;;;5.93;5.33;;;4.60;99.90;;;;;;5053079;28;20171;-46
2022/12/07 02:01:50;;;;;;;6.10;5.50;;;4.70;99.90;;;;;;5052666;28;20168;-47
2022/12/07 02:04:16;;;;;;;7.23;5.40;;;4.60;99.90;;;;;;5052886;28;20530;-48
2022/12/07 02:06:44;;;;;;;7.03;5.37;;;4.70;99.90;;;;;;5052499;28;20202;-53
2022/12/07 02:09:10;;;;;;;6.27;5.67;;;5.00;99.90;;;;;;5052781;28;20264;-52
2022/12/07 02:11:35;;;;;;;8.50;5.67;;;5.20;99.90;;;;;;5052533;28;20238;-47
2022/12/07 02:14:01;;;;;;;6.23;5.60;;;5.20;99.90;;;;;;5052516;28;20175;-48
2022/12/07 02:16:33;;;;;;;6.20;5.60;;;5.20;99.90;;;;;;5052567;28;20203;-50
2022/12/07 02:19:29;;;;;;;7.00;6.23;;;5.20;99.90;;;;;;5052611;28;20225;-47
2022/12/07 02:22:27;;;;;;;6.33;5.40;;;5.20;99.90;;;;;;5052537;28;20175;-53
2022/12/07 02:25:08;;;;;;;6.13;5.53;;;5.10;99.90;;;;;;5028672;28;20198;-47
2022/12/07 02:27:36;;;;;;;6.23;5.60;;;5.30;99.90;;;;;;5052214;28;20229;-49
2022/12/07 02:30:09;;;;;;;7.40;6.07;;;5.50;99.90;;;;;;5052634;28;20274;-49
2022/12/07 02:33:03;;;;;;;6.87;5.73;;;5.50;99.90;;;;;;5052474;28;20254;-51
2022/12/07 02:35:34;;;;;;;6.13;5.40;;;5.30;99.90;;;;;;5051980;28;20184;-46
2022/12/07 02:38:04;;;;;;;6.10;5.50;;;5.00;99.90;;;;;;5052283;28;20171;-51
2022/12/07 02:41:22;;;;;;;7.33;6.57;;;4.80;99.90;;;;;;5052158;28;20220;-48
2022/12/07 02:43:53;;;;;;;6.30;5.70;;;4.50;99.90;;;;;;4951164;29;20222;-49
2022/12/07 02:46:29;;;;;;;6.90;5.83;;;4.50;99.90;;;;;;4951782;28;20249;-47
2022/12/07 02:48:56;;;;;;;6.57;5.73;;;4.50;99.90;;;;;;4951765;29;20611;-48
2022/12/07 02:51:22;;;;;;;6.90;6.20;;;4.40;99.90;;;;;;4951636;29;20600;-47
2022/12/07 02:53:47;;;;;;;6.60;5.90;;;4.40;99.90;;;;;;4951276;29;20191;-48
2022/12/07 02:56:37;;;;;;;6.40;5.80;;;4.40;99.90;;;;;;4951373;28;20226;-50
2022/12/07 02:59:17;;;;;;;6.67;5.97;;;4.70;99.90;;;;;;4951736;29;20611;-47
2022/12/07 03:02:07;;;;;;;7.23;6.53;;;4.70;99.90;;;;;;4950801;28;20179;-47
2022/12/07 03:04:46;;;;;;;6.43;5.83;;;4.50;99.90;;;;;;4951399;29;20186;-47
2022/12/07 03:07:21;;;;;;;7.00;6.30;;;4.40;99.90;;;;;;4951196;28;20589;-47
2022/12/07 03:10:12;;;;;;;7.50;6.70;;;4.50;99.90;;;;;;4951648;29;20182;-48
2022/12/07 03:12:46;;;;;;;6.70;6.00;;;4.30;99.90;;;;;;4951033;29;20285;-54
2022/12/07 03:15:19;;;;;;;6.80;6.03;;;4.40;99.90;;;;;;4951190;29;20692;-53
2022/12/07 03:17:47;;;;;;;6.80;6.10;;;4.50;99.90;;;;;;4951094;29;20183;-51
2022/12/07 03:20:18;;;;;;;7.10;6.40;;;4.30;99.90;;;;;;5002226;28;20232;-48
2022/12/07 03:22:46;;;;;;;6.70;6.00;;;4.30;99.90;;;;;;5051360;28;20183;-49
2022/12/07 03:25:16;;;;;;;6.47;5.87;;;4.40;99.90;;;;;;5051318;28;20237;-49
2022/12/07 03:27:48;;;;;;;6.73;6.03;;;4.30;99.90;;;;;;5051303;28;20195;-47
2022/12/07 03:30:20;;;;;;;7.63;6.83;;;4.10;99.90;;;;;;5051586;28;20583;-47
2022/12/07 03:33:10;;;;;;;7.10;6.40;;;4.10;99.90;;;;;;5051205;28;20201;-47
2022/12/07 03:35:48;;;;;;;8.53;6.70;;;4.10;99.90;;;;;;5050232;28;20580;-49
2022/12/07 03:38:28;;;;;;;7.53;6.63;;;4.00;99.90;;;;;;5051062;28;20201;-50
2022/12/07 03:41:16;;;;;;;7.10;6.33;;;3.90;99.90;;;;;;5051437;28;20621;-49
2022/12/07 03:43:42;;;;;;;8.70;6.80;;;3.90;99.90;;;;;;5050720;28;20205;-47
2022/12/07 03:46:35;;;;;;;7.83;7.03;;;4.50;99.90;;;;;;5148002;22;20204;-57
2022/12/07 03:49:30;;;;;;;7.83;6.53;;;3.90;99.90;;;;;;5071015;28;20670;-57
2022/12/07 03:52:28;;;;;;;7.13;6.43;;;3.70;99.90;;;;;;5071391;28;20173;-53
2022/12/07 03:55:06;;;;;;;7.87;7.07;;;3.70;99.90;;;;;;5070780;28;20170;-57
2022/12/07 03:57:34;;;;;;;7.90;7.10;;;3.90;99.90;;;;;;5071207;28;20205;-55
2022/12/07 04:00:00;;;;;;;7.20;6.50;;;3.60;99.90;;;;;;5070951;28;20170;-54
2022/12/07 04:02:28;;;;;;;8.10;6.90;;;3.50;99.90;;;;;;5071192;28;20250;-57
2022/12/07 04:04:55;;;;;;;8.00;7.00;;;3.50;99.90;;;;;;5070878;28;20170;-55
2022/12/07 04:07:20;;;;;;;7.53;6.77;;;3.60;99.90;;;;;;5070879;28;20198;-53
2022/12/07 04:09:46;;;;;;;11.47;7.20;;;3.70;99.90;;;;;;5071149;28;20190;-53
2022/12/07 04:12:12;;;;;;;7.97;7.17;;;3.60;99.90;;;;;;5070988;28;20555;-58
2022/12/07 04:14:37;;;;;;;8.10;7.30;;;3.60;99.90;;;;;;5074805;28;20658;-56
2022/12/07 04:17:03;;;;;;;7.97;7.17;;;3.70;99.90;;;;;;5056638;28;20205;-56
2022/12/07 04:19:31;;;;;;;8.00;6.97;;;3.70;99.90;;;;;;5074998;28;20174;-54
2022/12/07 04:21:58;;;;;;;8.03;7.23;;;3.70;99.90;;;;;;5074748;28;20201;-54
2022/12/07 04:24:24;;;;;;;8.87;7.53;;;3.80;99.90;;;;;;5074673;28;20174;-55
2022/12/07 04:26:50;;;;;;;7.47;6.77;;;3.80;99.90;;;;;;5074651;28;20198;-56
2022/12/07 04:29:17;;;;;;;7.43;6.63;;;3.70;99.90;;;;;;5074751;28;20247;-53
2022/12/07 04:31:43;;;;;;;8.30;7.30;;;3.70;99.90;;;;;;5074689;28;20268;-57
2022/12/07 04:34:10;;;;;;;7.67;6.90;;;3.80;99.90;;;;;;5074173;28;20634;-54
2022/12/07 04:36:36;;;;;;;7.90;7.10;;;3.80;99.90;;;;;;5074544;28;20205;-57
2022/12/07 04:39:03;;;;;;;7.90;7.10;;;3.70;99.90;;;;;;5074389;28;20167;-55
2022/12/07 04:41:28;;;;;;;7.73;7.00;;;3.70;99.90;;;;;;5074634;28;20228;-54
2022/12/07 04:44:01;;;;;;;8.20;7.40;;;3.60;99.90;;;;;;5073948;28;20627;-54
2022/12/07 04:46:29;;;;;;;7.73;7.03;;;3.60;99.90;;;;;;5074376;28;20285;-54
2022/12/07 04:48:55;;;;;;;7.97;7.17;;;3.50;99.90;;;;;;5074180;28;20167;-58
2022/12/07 04:51:23;;;;;;;9.60;8.60;;;3.60;99.90;;;;;;5074437;28;20175;-56
2022/12/07 04:53:49;;;;;;;9.20;8.30;;;3.50;99.90;;;;;;5074035;28;20219;-56
2022/12/07 04:56:16;;;;;;;7.80;7.00;;;3.50;99.90;;;;;;5073995;28;20651;-56
2022/12/07 04:58:42;;;;;;;8.17;7.37;;;3.40;99.90;;;;;;5074142;28;20183;-57
2022/12/07 05:01:08;;;;;;;8.60;7.70;;;3.50;99.90;;;;;;5074090;28;20200;-58
2022/12/07 05:03:35;;;;;;;7.30;6.60;;;3.60;99.90;;;;;;5073912;28;20158;-53
2022/12/07 05:06:01;;;;;;;8.07;7.27;;;3.70;99.90;;;;;;5073794;28;21030;-53
2022/12/07 05:08:26;;;;;;;8.30;7.50;;;3.90;99.90;;;;;;5074065;28;20167;-58
2022/12/07 05:10:52;;;;;;;9.67;7.83;;;3.80;99.90;;;;;;5073752;28;20174;-57
2022/12/07 05:13:17;;;;;;;8.53;7.67;;;3.50;99.90;;;;;;5073928;28;20166;-56
2022/12/07 05:15:43;;;;;;;8.73;7.83;;;3.50;99.90;;;;;;5073270;28;20224;-57
2022/12/07 05:18:12;;;;;;;8.83;7.97;;;3.50;99.90;;;;;;5073857;28;20191;-57
2022/12/07 05:20:38;;;;;;;8.90;8.00;;;3.50;99.90;;;;;;5073927;28;20177;-58
2022/12/07 05:23:03;;;;;;;9.33;8.43;;;3.60;99.90;;;;;;5073510;28;20219;-58
2022/12/07 05:25:29;;;;;;;8.87;7.97;;;3.70;99.90;;;;;;5072938;28;20633;-56
2022/12/07 05:27:56;;;;;;;10.03;8.57;;;3.80;99.90;;;;;;5073248;28;20780;-57
2022/12/07 05:30:22;;;;;;;10.13;9.13;;;4.00;99.90;;;;;;5073679;28;20159;-56
2022/12/07 05:32:47;;;;;;;10.60;9.50;;;4.00;99.90;;;;;;5073426;28;20235;-54
2022/12/07 05:35:13;;;;;;;11.53;9.90;;;4.00;99.90;;;;;;5073452;28;20245;-54
2022/12/07 05:37:38;;;;;;;11.80;10.43;;;3.90;99.90;;;;;;5073768;28;20202;-53
2022/12/07 05:40:06;;;;;;;13.23;10.50;;;3.80;99.90;;;;;;5073631;28;20167;-54
2022/12/07 05:42:31;;;;;;;12.53;11.23;;;3.70;99.90;;;;;;5073429;28;20171;-55
2022/12/07 05:44:57;;;;;;;14.33;12.20;;;3.70;99.90;;;;;;5072988;28;20181;-57
2022/12/07 05:47:22;;;;;;;14.40;11.63;;;3.60;99.90;;;;;;5073202;28;20591;-58
2022/12/07 05:49:48;;;;;;;13.53;11.30;;;3.50;99.90;;;;;;5073034;28;20673;-57
2022/12/07 05:52:14;;;;;;;13.27;11.87;;;3.50;99.90;;;;;;5073294;28;20261;-57
2022/12/07 05:54:39;;;;;;;13.33;11.10;;;3.50;99.90;;;;;;5072782;28;20351;-57
2022/12/07 05:57:05;;;;;;;12.93;11.37;;;3.60;99.90;;;;;;5072984;28;20198;-54
2022/12/07 05:59:30;;;;;;;13.23;11.53;;;3.90;99.90;;;;;;5072835;28;20196;-54
2022/12/07 06:01:57;;;;;;;12.03;10.03;;;4.10;99.90;;;;;;5073160;28;20170;-54
2022/12/07 06:04:24;;;;;;;14.23;11.13;;;4.50;99.90;;;;;;5072659;28;20704;-56
2022/12/07 06:06:50;;;;;;;13.03;11.17;;;4.80;99.90;;;;;;5072803;28;20213;-56
2022/12/07 06:09:18;;;;;;;12.80;10.70;;;4.80;99.90;;;;;;5072903;28;20253;-55
2022/12/07 06:14:28;;;;;;;11.37;10.17;;;5.30;99.90;;;;;;5072626;28;20554;-55
2022/12/07 06:16:54;;;;;;;11.57;10.00;;;5.50;99.90;;;;;;5072410;28;20214;-58
2022/12/07 06:19:19;;;;;;;10.47;9.37;;;5.70;99.90;;;;;;5072700;28;20551;-54
2022/12/07 06:21:45;;;;;;;10.93;9.70;;;5.90;99.90;;;;;;5072459;28;20541;-55
2022/12/07 06:24:14;;;;;;;11.13;9.57;;;5.90;99.90;;;;;;5071315;28;20643;-58
2022/12/07 06:26:40;;;;;;;11.07;9.87;;;5.80;99.90;;;;;;5071885;28;20236;-56
2022/12/07 06:29:06;;;;;;;12.77;10.30;;;5.60;99.90;;;;;;5072054;28;20790;-56
2022/12/07 06:31:32;;;;;;;11.87;10.10;;;5.50;99.90;;;;;;5072263;28;20208;-53
2022/12/07 06:34:03;;;;;;;9.93;8.93;;;5.50;99.90;;;;;;5067501;28;20178;-53
2022/12/07 06:36:28;;;;;;;11.63;10.07;;;5.20;99.90;;;;;;5070336;28;20351;-56
2022/12/07 06:38:54;;;;;;;11.30;9.90;;;5.10;99.90;;;;;;5071471;28;20301;-58
2022/12/07 06:41:20;;;;;;;10.47;9.33;;;5.10;99.90;;;;;;5071521;28;20285;-53
2022/12/07 06:43:46;;;;;;;9.17;8.27;;;5.10;99.90;;;;;;5070957;28;20639;-58
2022/12/07 06:46:12;;;;;;;11.77;8.53;;;5.00;99.90;;;;;;5053059;28;20214;-57
2022/12/07 06:48:38;;;;;;;10.20;8.00;;;4.60;99.90;;;;;;5071425;28;20194;-55
2022/12/07 06:51:03;;;;;;;10.43;8.20;;;4.60;99.90;;;;;;5071457;28;20186;-53
2022/12/07 06:53:29;;;;;;;9.27;8.27;;;4.60;99.90;;;;;;5071070;28;20190;-56
2022/12/07 06:55:55;;;;;;;10.03;8.77;;;4.30;99.90;;;;;;5070060;28;20559;-57
2022/12/07 06:58:20;;;;;;;9.37;8.23;;;4.40;99.90;;;;;;5071750;28;20220;-58
2022/12/07 07:00:48;;;;;;;9.17;8.27;;;5.70;99.90;;;;;;5071223;28;20708;-53
2022/12/07 07:03:13;;;;;;;10.60;8.57;;;4.50;99.90;;;;;;5071460;28;20202;-56
2022/12/07 07:05:39;;;;;;;9.73;8.73;;;4.50;99.90;;;;;;5070692;28;20221;-54
2022/12/07 07:08:04;;;;;;;10.07;9.03;;;3.90;99.90;;;;;;5070532;28;20198;-56
2022/12/07 07:10:30;;;;;;;9.60;8.53;;;4.90;99.90;;;;;;5071007;28;20170;-54
2022/12/07 07:12:56;;;;;;;9.60;8.63;;;4.70;99.90;;;;;;5071034;28;20186;-54
2022/12/07 07:15:21;;;;;;;12.90;9.10;;;4.60;99.90;;;;;;5070267;28;20190;-56
2022/12/07 07:17:47;;;;;;;9.60;8.60;;;4.40;99.90;;;;;;5070331;28;20225;-57
2022/12/07 07:20:13;;;;;;;11.00;9.90;;;4.10;99.90;;;;;;5070943;28;20265;-55
2022/12/07 07:22:38;;;;;;;9.83;8.77;;;3.80;99.90;;;;;;5070469;28;20243;-57
2022/12/07 07:25:04;;;;;;;10.17;9.07;;;3.60;99.90;;;;;;5069733;28;20585;-58
2022/12/07 07:27:30;;;;;;;11.17;9.97;;;3.60;99.90;;;;;;5071180;28;20198;-54
2022/12/07 07:29:55;;;;;;;11.27;10.17;;;3.90;99.90;;;;;;5071098;28;20174;-54
2022/12/07 07:32:21;;;;;;;10.83;9.73;;;3.70;99.90;;;;;;5071616;28;20209;-57
2022/12/07 07:34:48;;;;;;;11.27;9.73;;;3.70;99.90;;;;;;5070574;28;20239;-53
2022/12/07 07:37:13;;;;;;;10.47;9.37;;;4.00;99.90;;;;;;5070882;28;20285;-56
2022/12/07 07:39:39;;;;;;;11.67;10.47;;;4.20;99.90;;;;;;5069654;28;20273;-57
2022/12/07 07:42:05;;;;;;;11.70;10.50;;;4.40;99.90;;;;;;5071870;28;20166;-57
2022/12/07 07:44:30;;;;;;;10.93;9.83;;;4.20;99.90;;;;;;5070262;28;20181;-57
2022/12/07 07:46:56;;;;;;;12.87;10.60;;;4.20;99.90;;;;;;5071177;28;20322;-55
2022/12/07 07:49:22;;;;;;;11.40;10.20;;;3.80;99.90;;;;;;5071087;28;20182;-57
2022/12/07 07:51:47;;;;;;;12.33;10.40;;;3.70;99.90;;;;;;5071497;28;20220;-55
2022/12/07 07:54:13;;;;;;;11.10;9.87;;;3.80;99.90;;;;;;5071126;28;20175;-54
2022/12/07 07:56:38;;;;;;;10.37;9.37;;;4.00;99.90;;;;;;5071013;28;20675;-56
2022/12/07 07:59:04;;;;;;;9.97;8.97;;;4.30;99.90;;;;;;5071237;28;20178;-58
2022/12/07 08:01:29;;;;;;;9.83;8.77;;;4.70;99.90;;;;;;5071140;28;20178;-56
2022/12/07 08:03:55;;;;;;;10.03;9.03;;;5.30;99.90;;;;;;5071039;28;20204;-53
2022/12/07 08:06:20;;;;;;;10.20;9.20;;;5.50;99.90;;;;;;5070925;28;20198;-58
2022/12/07 08:08:46;;;;;;;10.27;8.90;;;5.50;99.90;;;;;;5071178;28;20170;-57
2022/12/07 08:11:12;;;;;;;9.30;8.40;;;5.50;99.90;;;;;;5071090;28;20174;-57
2022/12/07 08:13:37;;;;;;;9.70;8.47;;;5.90;99.90;;;;;;5070807;28;20549;-54
2022/12/07 08:16:04;;;;;;;8.53;7.63;;;;;;;;;;5071001;28;20281;-57
2022/12/07 08:18:30;;;;;;;8.07;7.27;;;7.10;99.90;;;;;;5070882;28;20170;-57
2022/12/07 08:21:00;;;;;;;8.40;7.60;;;7.80;99.90;;;;;;5071056;28;20761;-56
2022/12/07 08:23:26;;;;;;;7.57;6.87;;;8.30;99.90;;;;;;5070866;28;20193;-56
2022/12/07 08:25:52;;;;;;;7.67;6.97;;;8.60;99.90;;;;;;5070936;28;20178;-58
2022/12/07 08:28:18;;;;;;;7.97;7.27;;;8.80;99.90;;;;;;5070822;28;20676;-57
2022/12/07 08:30:43;;;;;;;8.40;7.60;;;8.80;99.90;;;;;;5071073;28;20179;-58
2022/12/07 08:33:10;;;;;;;8.60;7.80;;;8.00;99.90;;;;;;5070886;28;20276;-57
2022/12/07 08:35:35;;;;;;;8.00;7.20;;;7.40;99.90;;;;;;5070603;28;20179;-55
2022/12/07 08:38:02;;;;;;;8.30;7.50;;;7.20;99.90;;;;;;5070634;28;20194;-58
2022/12/07 08:40:28;;;;;;;8.80;7.90;;;7.80;99.90;;;;;;5070885;28;20171;-57
2022/12/07 08:42:53;;;;;;;8.80;7.50;;;8.10;99.90;;;;;;5070710;28;20167;-57
2022/12/07 08:45:20;;;;;;;7.33;6.63;;;8.90;99.90;;;;;;5070404;28;20208;-58
2022/12/07 08:47:56;;;;;;;7.60;6.90;;;9.30;99.90;;;;;;5070488;28;20221;-54
2022/12/07 08:50:23;;;;;;;8.10;7.33;;;9.70;99.90;;;;;;5070735;28;20170;-56
2022/12/07 08:52:54;;;;;;;8.30;7.50;;;10.20;99.90;;;;;;5070881;28;20166;-54
2022/12/07 08:55:21;;;;;;;7.37;6.67;;;10.70;99.90;;;;;;5070236;28;20226;-54
2022/12/07 08:57:46;;;;;;;7.47;6.77;;;11.50;99.90;;;;;;5070450;28;20205;-55
2022/12/07 09:00:13;;;;;;;7.77;7.07;;;12.10;99.90;;;;;;5071885;28;20166;-58
2022/12/07 09:02:39;;;;;;;7.70;7.00;;;12.40;99.90;;;;;;5074110;28;20214;-56
2022/12/07 09:05:05;;;;;;;7.20;6.50;;;12.90;99.90;;;;;;5073699;28;20198;-54
2022/12/07 09:07:32;;;;;;;7.13;6.53;;;13.80;99.90;;;;;;5074022;28;20191;-58
2022/12/07 09:09:58;;;;;;;7.13;6.30;;;14.60;99.90;;;;;;5073786;28;20198;-55
2022/12/07 09:12:23;;;;;;;6.83;6.23;;;15.20;98.60;;;;;;5073971;28;20177;-55
2022/12/07 09:14:49;;;;;;;7.37;6.67;;;14.90;97.30;;;;;;5073644;28;20174;-57
2022/12/07 09:17:14;;;;;;;6.97;6.37;;;14.70;98.00;;;;;;5073525;28;20289;-55
2022/12/07 09:19:42;;;;;;;7.87;7.17;;;14.00;98.00;;;;;;5073762;28;20181;-55
2022/12/07 09:22:08;;;;;;;8.17;7.47;;;13.40;98.60;;;;;;5073612;28;20163;-57
2022/12/07 09:24:34;;;;;;;8.23;7.53;;;12.90;99.60;;;;;;5073511;28;20178;-57
2022/12/07 09:26:59;;;;;;;8.23;7.43;;;12.00;99.90;;;;;;5073414;28;20533;-54
2022/12/07 09:29:25;;;;;;;7.83;7.13;;;10.50;99.90;;;;;;5073611;28;20171;-59
2022/12/07 09:31:52;;;;;;;8.40;7.53;;;9.60;99.90;;;;;;5073349;28;20170;-56
2022/12/07 09:34:18;;;;;;;8.70;7.90;;;8.50;99.90;;;;;;5073309;28;20508;-54
2022/12/07 09:36:43;;;;;;;8.37;7.57;;;8.00;99.90;;;;;;5073166;28;20293;-55
2022/12/07 09:39:09;;;;;;;9.43;8.57;;;7.90;99.90;;;;;;5073425;28;20174;-56
2022/12/07 09:41:39;;;;;;;9.50;8.60;;;7.50;99.90;;;;;;5073402;28;20159;-57
2022/12/07 09:44:09;;;;;;;9.67;8.77;;;7.00;99.90;;;;;;5073233;28;20777;-58
2022/12/07 09:46:38;;;;;;;9.53;8.63;;;6.80;99.90;;;;;;5089034;22;20194;-46
2022/12/07 09:49:05;;;;;;;9.90;8.90;;;6.60;99.90;;;;;;5072682;28;20622;-46
2022/12/07 09:51:31;;;;;;;9.40;8.50;;;6.10;99.90;;;;;;5072909;28;20249;-47
2022/12/07 09:53:59;;;;;;;9.70;8.70;;;5.80;99.90;;;;;;5072590;28;20242;-48
2022/12/07 09:56:25;;;;;;;10.77;9.67;;;5.80;99.90;;;;;;5072724;28;20221;-47
2022/12/07 09:58:59;;;;;;;10.90;9.80;;;5.80;99.90;;;;;;5072644;28;20500;-46
2022/12/07 10:01:25;;;;;;;9.87;8.87;;;5.80;99.90;;;;;;5072908;28;20626;-48
2022/12/07 10:04:00;;;;;;;10.73;8.63;;;6.00;99.90;;;;;;5072312;28;20162;-50
2022/12/07 10:06:26;;;;;;;9.73;8.70;;;6.00;99.90;;;;;;5072635;28;20170;-48
2022/12/07 10:08:51;;;;;;;9.20;8.30;;;6.10;99.90;;;;;;5072415;28;20180;-49
2022/12/07 10:11:17;;;;;;;9.30;8.40;;;5.80;99.90;;;;;;5072459;28;20182;-46
2022/12/07 10:13:49;;;;;;;9.37;8.40;;;5.70;99.90;;;;;;5072130;28;20170;-49
2022/12/07 10:16:24;;;;;;;9.47;8.37;;;6.10;99.90;;;;;;5072505;28;20190;-48
2022/12/07 10:18:49;;;;;;;9.70;8.70;;;6.20;99.90;;;;;;5072417;28;20170;-49
2022/12/07 10:21:20;;;;;;;10.50;9.23;;;6.60;99.90;;;;;;5072397;28;20170;-52
2022/12/07 10:24:14;;;;;;;11.17;9.30;;;7.00;99.90;;;;;;5072046;28;20159;-48
2022/12/07 10:26:49;;;;;;;9.27;8.37;;;7.40;99.90;;;;;;4971348;28;20599;-50
2022/12/07 10:29:19;;;;;;;9.57;8.60;;;7.70;99.90;;;;;;4971318;28;20263;-48
2022/12/07 10:31:49;;;;;;;9.33;8.43;;;7.80;99.90;;;;;;4971126;28;20194;-50
2022/12/07 10:34:25;;;;;;;8.80;7.90;;;7.60;99.90;;;;;;4971035;28;20177;-47
2022/12/07 10:36:51;;;;;;;7.97;7.17;;;7.30;99.90;;;;;;4970925;28;20205;-51
2022/12/07 10:39:21;;;;;;;8.00;7.20;;;7.00;99.90;;;;;;4971109;28;20732;-46
2022/12/07 10:41:57;;;;;;;8.60;7.70;;;6.60;99.90;;;;;;4970951;28;20174;-46
2022/12/07 10:44:26;;;;;;;9.03;6.80;;;6.30;99.90;;;;;;4970779;28;20192;-51
2022/12/07 10:47:09;;;;;;;7.73;6.97;;;6.40;99.90;;;;;;4970610;28;20691;-48
2022/12/07 10:49:37;;;;;;;8.33;7.13;;;6.40;99.90;;;;;;4970952;28;20178;-50
2022/12/07 10:52:08;;;;;;;7.33;6.63;;;6.50;99.90;;;;;;4970865;28;20224;-50
2022/12/07 10:54:48;;;;;;;7.83;7.03;;;7.60;99.90;;;;;;4970638;28;20186;-48
2022/12/07 10:57:35;;;;;;;7.43;6.73;;;7.00;99.90;;;;;;4970522;28;20222;-49
2022/12/07 11:00:23;;;;;;;7.90;7.10;;;7.60;99.90;;;;;;4971140;28;20182;-47
2022/12/07 11:03:21;;;;;;;7.80;6.63;;;7.80;99.90;;;;;;4986215;28;20178;-48
2022/12/07 11:06:12;;;;;;;8.00;7.13;;;8.40;99.90;;;;;;5071348;28;20171;-48
2022/12/07 11:08:47;;;;;;;7.90;7.10;;;8.60;99.90;;;;;;5071207;28;20178;-47
2022/12/07 11:11:34;;;;;;;8.60;7.80;;;8.70;99.90;;;;;;5072003;28;20179;-52
2022/12/07 11:14:03;;;;;;;8.20;7.40;;;8.50;99.90;;;;;;5071466;28;20166;-46
2022/12/07 11:16:49;;;;;;;8.70;7.80;;;7.90;99.90;;;;;;5071285;28;20190;-51
2022/12/07 11:19:30;;;;;;;7.97;7.17;;;7.50;99.90;;;;;;5071430;28;20257;-52
2022/12/07 11:22:08;;;;;;;7.93;7.13;;;7.00;99.90;;;;;;5071265;28;20639;-46
2022/12/07 11:24:53;;;;;;;7.73;7.03;;;6.80;99.90;;;;;;5070862;28;20166;-46
2022/12/07 11:27:51;;;;;;;8.27;7.40;;;6.70;99.90;;;;;;5071358;28;20202;-48
2022/12/07 11:30:23;;;;;;;7.67;6.87;;;6.60;99.90;;;;;;5071459;28;20651;-47
2022/12/07 11:33:21;;;;;;;8.10;7.30;;;6.40;99.90;;;;;;5071264;28;20183;-47
2022/12/07 11:36:03;;;;;;;7.00;6.30;;;6.40;99.90;;;;;;5071071;28;20174;-48
2022/12/07 11:39:00;;;;;;;8.13;7.33;;;6.30;99.90;;;;;;5071112;28;20269;-49
2022/12/07 11:41:32;;;;;;;8.43;7.20;;;6.10;99.90;;;;;;4969997;28;20217;-51
2022/12/07 11:44:02;;;;;;;8.33;7.50;;;5.90;99.90;;;;;;4969927;28;20185;-49
2022/12/07 11:46:40;;;;;;;8.47;7.60;;;5.80;99.90;;;;;;4970031;28;20573;-50
2022/12/07 11:49:42;;;;;;;8.77;7.87;;;5.60;99.90;;;;;;4970044;28;20661;-47
2022/12/07 11:52:18;;;;;;;9.60;7.53;;;5.70;99.90;;;;;;4970253;28;20185;-50
2022/12/07 11:54:45;;;;;;;9.53;8.23;;;5.80;99.90;;;;;;4969694;28;20177;-51
2022/12/07 11:57:24;;;;;;;8.23;7.33;;;5.80;99.90;;;;;;4970149;28;20600;-48
2022/12/07 11:59:54;;;;;;;7.63;6.83;;;5.70;99.90;;;;;;4969853;28;20173;-49
2022/12/07 12:02:43;;;;;;;9.20;7.77;;;5.80;99.90;;;;;;4970179;28;20176;-49
2022/12/07 12:05:21;;;;;;;8.23;7.43;;;5.80;99.90;;;;;;4969679;28;20278;-48
2022/12/07 12:08:04;;;;;;;7.97;7.17;;;5.80;99.90;;;;;;4969954;28;20221;-46
2022/12/07 12:11:06;;;;;;;8.27;7.37;;;5.70;99.90;;;;;;4969906;28;20193;-50
2022/12/07 12:14:11;;;;;;;7.57;6.77;;;5.90;99.90;;;;;;4969943;28;20185;-47
2022/12/07 12:16:40;;;;;;;8.07;6.73;;;6.30;99.90;;;;;;4971143;28;20701;-46
2022/12/07 12:19:26;;;;;;;7.87;7.03;;;6.70;99.90;;;;;;5070879;28;20636;-47
2022/12/07 12:22:00;;;;;;;8.00;7.20;;;6.70;99.90;;;;;;5070754;28;20170;-46
2022/12/07 12:24:29;;;;;;;8.40;7.43;;;6.70;99.90;;;;;;5070587;28;20220;-49
2022/12/07 12:27:04;;;;;;;7.73;6.93;;;6.90;99.90;;;;;;5070522;28;20272;-47
2022/12/07 12:29:41;;;;;;;7.77;6.53;;;6.90;99.90;;;;;;5070878;28;20693;-49
2022/12/07 12:32:40;;;;;;;7.27;6.57;;;7.00;99.90;;;;;;5070668;28;20273;-48
2022/12/07 12:35:50;;;;;;;7.77;6.97;;;6.80;99.90;;;;;;5071743;28;20171;-53
2022/12/07 12:38:33;;;;;;;7.80;6.90;;;6.70;99.90;;;;;;4973080;28;20251;-51
2022/12/07 12:41:00;;;;;;;7.70;6.90;;;6.70;99.90;;;;;;4973449;28;20181;-47
2022/12/07 12:43:48;;;;;;;7.90;7.10;;;7.00;99.90;;;;;;4973113;28;20653;-50
2022/12/07 12:46:29;;;;;;;7.70;6.90;;;7.40;99.90;;;;;;4973353;28;20189;-49
2022/12/07 12:49:16;;;;;;;8.23;7.40;;;7.30;99.90;;;;;;4972824;28;20220;-47
2022/12/07 12:51:43;;;;;;;8.40;7.53;;;7.20;99.90;;;;;;4972795;28;20182;-49
2022/12/07 12:54:25;;;;;;;8.30;7.13;;;7.40;99.90;;;;;;4972676;28;20174;-51
2022/12/07 12:57:09;;;;;;;9.73;7.50;;;7.70;99.90;;;;;;4972919;28;20710;-51
2022/12/07 12:59:53;;;;;;;8.27;7.47;;;7.50;99.90;;;;;;4972736;28;20260;-48
2022/12/07 13:02:24;;;;;;;7.87;7.07;;;7.40;99.90;;;;;;4956294;28;20249;-48
2022/12/07 13:04:52;;;;;;;9.53;7.57;;;7.70;99.90;;;;;;4972045;28;20593;-48
2022/12/07 13:07:49;;;;;;;9.03;7.80;;;7.80;99.90;;;;;;4972476;28;20281;-49
2022/12/07 13:10:22;;;;;;;8.83;7.93;;;7.90;99.90;;;;;;4972319;28;20579;-46
2022/12/07 13:13:12;;;;;;;9.10;7.50;;;8.10;99.90;;;;;;4972821;28;20691;-47
2022/12/07 13:15:38;;;;;;;8.70;7.53;;;8.30;99.90;;;;;;5044933;28;20270;-51
2022/12/07 13:18:26;;;;;;;9.13;7.87;;;8.30;99.90;;;;;;5073242;28;20296;-51
2022/12/07 13:21:12;;;;;;;8.87;7.97;;;7.90;99.90;;;;;;4971895;28;20604;-46